createdAt,value
2018-05-11T00:00:18.877Z,100.00
2018-05-11T00:02:46.474Z,100.00
2018-05-11T00:05:14.070Z,100.00
2018-05-11T00:07:41.695Z,100.00
2018-05-11T00:10:09.294Z,100.00
2018-05-11T00:12:36.913Z,100.00
2018-05-11T00:15:04.560Z,100.00
2018-05-11T00:17:32.156Z,100.00
2018-05-11T00:19:59.759Z,100.00
2018-05-11T00:22:27.505Z,100.00
2018-05-11T00:24:55.089Z,100.00
2018-05-11T00:27:22.684Z,100.00
2018-05-11T00:29:50.419Z,100.00
2018-05-11T00:32:18.007Z,100.00
2018-05-11T00:34:45.617Z,100.00
2018-05-11T00:37:13.283Z,100.00
2018-05-11T00:39:40.879Z,100.00
2018-05-11T00:42:08.465Z,100.00
2018-05-11T00:44:36.093Z,100.00
2018-05-11T00:47:03.688Z,100.00
2018-05-11T00:49:31.278Z,100.00
2018-05-11T00:51:58.929Z,100.00
2018-05-11T00:54:26.537Z,100.00
2018-05-11T00:56:54.139Z,100.00
2018-05-11T00:59:21.815Z,100.00
2018-05-11T01:01:49.405Z,100.00
2018-05-11T01:04:17.064Z,100.00
2018-05-11T01:06:44.706Z,100.00
2018-05-11T01:09:12.300Z,100.00
2018-05-11T01:11:39.899Z,100.00
2018-05-11T01:14:07.519Z,100.00
2018-05-11T01:16:35.113Z,100.00
2018-05-11T01:19:02.712Z,100.00
2018-05-11T01:21:30.352Z,100.00
2018-05-11T01:23:57.949Z,100.00
2018-05-11T01:26:25.547Z,100.00
2018-05-11T01:28:54.054Z,100.00
2018-05-11T01:31:21.660Z,100.00
2018-05-11T01:33:49.252Z,100.00
2018-05-11T01:36:16.861Z,100.00
2018-05-11T01:38:44.483Z,100.00
2018-05-11T01:41:12.078Z,100.00
2018-05-11T01:43:39.711Z,100.00
2018-05-11T01:46:07.315Z,100.00
2018-05-11T01:48:34.909Z,100.00
2018-05-11T01:51:02.538Z,100.00
2018-05-11T01:53:30.135Z,100.00
2018-05-11T01:55:57.725Z,100.00
2018-05-11T01:58:25.364Z,100.00
2018-05-11T02:00:52.968Z,100.00
2018-05-11T02:03:20.585Z,100.00
2018-05-11T02:05:48.204Z,100.00
2018-05-11T02:08:15.797Z,100.00
2018-05-11T02:10:43.384Z,100.00
2018-05-11T02:13:11.003Z,100.00
2018-05-11T02:15:38.600Z,100.00
2018-05-11T02:18:06.200Z,100.00
2018-05-11T02:20:33.843Z,100.00
2018-05-11T02:23:01.436Z,100.00
2018-05-11T02:25:29.033Z,100.00
2018-05-11T02:27:56.665Z,100.00
2018-05-11T02:30:24.268Z,100.00
2018-05-11T02:32:51.882Z,100.00
2018-05-11T02:35:19.512Z,100.00
2018-05-11T02:37:47.129Z,100.00
2018-05-11T02:40:14.716Z,100.00
2018-05-11T02:42:42.361Z,100.00
2018-05-11T02:45:09.957Z,100.00
2018-05-11T02:47:37.552Z,100.00
2018-05-11T02:50:05.179Z,100.00
2018-05-11T02:52:32.775Z,100.00
2018-05-11T02:55:00.365Z,100.00
2018-05-11T02:57:27.995Z,100.00
2018-05-11T02:59:55.589Z,100.00
2018-05-11T03:02:23.221Z,100.00
2018-05-11T03:04:50.845Z,100.00
2018-05-11T03:07:18.479Z,100.00
2018-05-11T03:09:46.076Z,100.00
2018-05-11T03:12:13.703Z,100.00
2018-05-11T03:14:41.307Z,100.00
2018-05-11T03:17:08.975Z,100.00
2018-05-11T03:19:36.578Z,100.00
2018-05-11T03:22:04.184Z,100.00
2018-05-11T03:24:31.783Z,100.00
2018-05-11T03:26:59.419Z,100.00
2018-05-11T03:29:27.105Z,100.00
2018-05-11T03:31:54.720Z,100.00
2018-05-11T03:34:22.354Z,100.00
2018-05-11T03:36:49.961Z,100.00
2018-05-11T03:39:17.585Z,100.00
2018-05-11T03:41:45.216Z,100.00
2018-05-11T03:44:12.821Z,100.00
2018-05-11T03:46:40.430Z,100.00
2018-05-11T03:49:08.076Z,100.00
2018-05-11T03:51:35.689Z,100.00
2018-05-11T03:54:03.284Z,100.00
2018-05-11T03:56:30.910Z,100.00
2018-05-11T03:58:58.505Z,100.00
2018-05-11T04:01:38.044Z,100.00
2018-05-11T04:04:17.351Z,100.00
2018-05-11T04:06:56.701Z,100.00
2018-05-11T04:09:24.296Z,100.00
2018-05-11T04:11:51.905Z,100.00
2018-05-11T04:14:19.553Z,100.00
2018-05-11T04:16:47.144Z,100.00
2018-05-11T04:19:14.801Z,100.00
2018-05-11T04:21:42.444Z,100.00
2018-05-11T04:24:10.044Z,100.00
2018-05-11T04:26:37.636Z,100.00
2018-05-11T04:29:05.265Z,100.00
2018-05-11T04:31:32.860Z,100.00
2018-05-11T04:34:00.469Z,100.00
2018-05-11T04:36:28.093Z,100.00
2018-05-11T04:38:55.693Z,100.00
2018-05-11T04:41:23.451Z,100.00
2018-05-11T04:43:51.093Z,100.00
2018-05-11T04:46:18.682Z,100.00
2018-05-11T04:48:46.280Z,100.00
2018-05-11T04:51:13.919Z,100.00
2018-05-11T04:53:41.523Z,100.00
2018-05-11T04:56:09.175Z,100.00
2018-05-11T04:58:36.906Z,100.00
2018-05-11T05:01:04.523Z,100.00
2018-05-11T05:03:32.138Z,97.88
2018-05-11T05:05:59.764Z,96.74
2018-05-11T05:08:27.356Z,95.64
2018-05-11T05:10:54.943Z,95.67
2018-05-11T05:13:22.557Z,94.92
2018-05-11T05:15:50.142Z,94.80
2018-05-11T05:18:17.747Z,95.78
2018-05-11T05:20:45.375Z,95.63
2018-05-11T05:23:12.970Z,96.65
2018-05-11T05:25:40.557Z,96.84
2018-05-11T05:28:08.166Z,96.99
2018-05-11T05:30:35.748Z,97.46
2018-05-11T05:33:03.394Z,97.14
2018-05-11T05:35:30.997Z,96.32
2018-05-11T05:37:58.584Z,96.72
2018-05-11T05:40:26.163Z,97.60
2018-05-11T05:42:53.825Z,94.79
2018-05-11T05:45:21.413Z,93.75
2018-05-11T05:47:49.025Z,92.74
2018-05-11T05:50:16.653Z,92.37
2018-05-11T05:52:44.236Z,91.09
2018-05-11T05:55:11.821Z,90.37
2018-05-11T05:57:39.440Z,89.60
2018-05-11T06:00:07.032Z,88.25
2018-05-11T06:02:34.710Z,87.65
2018-05-11T06:05:02.271Z,87.45
2018-05-11T06:07:29.875Z,85.38
2018-05-11T06:09:57.460Z,85.97
2018-05-11T06:12:25.084Z,84.95
2018-05-11T06:14:52.664Z,84.91
2018-05-11T06:17:20.241Z,84.01
2018-05-11T06:19:47.866Z,84.87
2018-05-11T06:22:15.447Z,84.67
2018-05-11T06:24:43.034Z,85.11
2018-05-11T06:27:10.649Z,84.02
2018-05-11T06:29:38.225Z,84.63
2018-05-11T06:32:05.836Z,83.77
2018-05-11T06:34:33.479Z,82.33
2018-05-11T06:37:01.068Z,82.16
2018-05-11T06:39:28.648Z,80.18
2018-05-11T06:41:56.278Z,79.37
2018-05-11T06:44:23.862Z,76.68
2018-05-11T06:46:51.442Z,76.30
2018-05-11T06:49:19.133Z,74.43
2018-05-11T06:51:46.722Z,72.63
2018-05-11T06:54:14.296Z,69.81
2018-05-11T06:56:41.914Z,68.76
2018-05-11T06:59:09.491Z,66.78
2018-05-11T07:01:37.154Z,63.81
2018-05-11T07:04:04.745Z,58.45
2018-05-11T07:06:32.338Z,57.82
2018-05-11T07:08:59.916Z,57.25
2018-05-11T07:11:27.537Z,60.04
2018-05-11T07:13:55.118Z,59.89
2018-05-11T07:16:22.706Z,55.92
2018-05-11T07:18:50.322Z,51.51
2018-05-11T07:21:17.926Z,43.60
2018-05-11T07:23:45.503Z,45.19
2018-05-11T07:26:13.124Z,41.76
2018-05-11T07:28:40.716Z,42.94
2018-05-11T07:31:08.306Z,41.92
2018-05-11T07:33:35.927Z,40.26
2018-05-11T07:36:03.602Z,41.34
2018-05-11T07:38:31.194Z,44.55
2018-05-11T07:40:58.823Z,44.23
2018-05-11T07:43:26.537Z,41.55
2018-05-11T07:45:54.030Z,41.04
2018-05-11T07:48:21.656Z,43.70
2018-05-11T07:50:49.249Z,46.20
2018-05-11T07:53:16.838Z,44.09
2018-05-11T07:55:44.455Z,42.21
2018-05-11T07:58:12.036Z,41.49
2018-05-11T08:00:39.632Z,45.14
2018-05-11T08:03:07.253Z,48.10
2018-05-11T08:05:34.846Z,45.43
2018-05-11T08:08:02.416Z,45.66
2018-05-11T08:10:30.074Z,41.91
2018-05-11T08:12:57.650Z,43.63
2018-05-11T08:15:25.235Z,42.80
2018-05-11T08:17:52.855Z,43.47
2018-05-11T08:20:20.436Z,42.00
2018-05-11T08:22:48.014Z,43.90
2018-05-11T08:25:15.618Z,45.03
2018-05-11T08:27:43.192Z,47.38
2018-05-11T08:30:10.776Z,49.83
2018-05-11T08:32:38.396Z,50.87
2018-05-11T08:35:05.984Z,54.23
2018-05-11T08:37:33.573Z,52.60
2018-05-11T08:40:01.201Z,58.40
2018-05-11T08:42:28.780Z,58.92
2018-05-11T08:44:56.374Z,60.60
2018-05-11T08:47:23.991Z,62.00
2018-05-11T08:49:51.581Z,63.31
2018-05-11T08:52:19.169Z,62.73
2018-05-11T08:54:46.800Z,62.63
2018-05-11T08:57:14.430Z,65.76
2018-05-11T08:59:42.004Z,64.80
2018-05-11T09:02:09.613Z,64.88
2018-05-11T09:04:37.205Z,63.72
2018-05-11T09:07:04.800Z,64.67
2018-05-11T09:09:32.437Z,60.97
2018-05-11T09:12:00.027Z,58.25
2018-05-11T09:14:27.611Z,56.95
2018-05-11T09:16:55.224Z,55.69
2018-05-11T09:19:22.857Z,56.39
2018-05-11T09:21:50.450Z,55.43
2018-05-11T09:24:18.084Z,55.00
2018-05-11T09:26:45.693Z,55.48
2018-05-11T09:29:13.280Z,56.31
2018-05-11T09:31:40.921Z,56.94
2018-05-11T09:34:08.499Z,59.29
2018-05-11T09:36:36.089Z,59.22
2018-05-11T09:39:03.817Z,58.05
2018-05-11T09:41:31.404Z,59.30
2018-05-11T09:43:58.983Z,56.22
2018-05-11T09:46:26.687Z,52.53
2018-05-11T09:48:54.289Z,51.19
2018-05-11T09:51:21.881Z,51.10
2018-05-11T09:53:49.501Z,53.20
2018-05-11T09:56:17.100Z,55.57
2018-05-11T09:58:44.701Z,57.23
2018-05-11T10:01:12.333Z,58.27
2018-05-11T10:03:39.918Z,57.45
2018-05-11T10:06:07.571Z,59.84
2018-05-11T10:08:35.177Z,53.91
2018-05-11T10:11:02.796Z,51.89
2018-05-11T10:13:30.384Z,50.82
2018-05-11T10:15:58.005Z,44.88
2018-05-11T10:18:25.592Z,43.30
2018-05-11T10:20:53.194Z,42.68
2018-05-11T10:23:20.935Z,40.53
2018-05-11T10:25:48.589Z,41.87
2018-05-11T10:28:16.160Z,41.61
2018-05-11T10:30:43.797Z,41.18
2018-05-11T10:33:11.382Z,40.92
2018-05-11T10:35:38.979Z,43.28
2018-05-11T10:38:06.601Z,46.53
2018-05-11T10:40:34.189Z,49.77
2018-05-11T10:43:01.773Z,50.30
2018-05-11T10:45:29.397Z,51.29
2018-05-11T10:47:56.976Z,52.25
2018-05-11T10:50:24.568Z,54.14
2018-05-11T10:52:52.195Z,55.46
2018-05-11T10:55:19.821Z,54.25
2018-05-11T10:57:47.426Z,57.64
2018-05-11T11:00:15.064Z,56.96
2018-05-11T11:02:42.722Z,57.76
2018-05-11T11:05:10.282Z,59.31
2018-05-11T11:07:37.900Z,58.93
2018-05-11T11:10:05.487Z,59.22
2018-05-11T11:12:33.066Z,59.62
2018-05-11T11:15:00.678Z,60.87
2018-05-11T11:17:28.310Z,60.14
2018-05-11T11:19:55.942Z,60.19
2018-05-11T11:22:23.586Z,58.58
2018-05-11T11:24:51.156Z,60.55
2018-05-11T11:27:18.732Z,60.57
2018-05-11T11:29:46.344Z,61.07
2018-05-11T11:32:13.915Z,61.83
2018-05-11T11:34:41.579Z,62.56
2018-05-11T11:37:09.155Z,64.85
2018-05-11T11:39:36.736Z,64.14
2018-05-11T11:42:04.349Z,65.45
2018-05-11T11:44:31.934Z,64.00
2018-05-11T11:46:59.549Z,64.13
2018-05-11T11:49:27.128Z,63.35
2018-05-11T11:51:54.745Z,63.74
2018-05-11T11:54:22.315Z,61.32
2018-05-11T11:56:49.907Z,61.05
2018-05-11T11:59:17.531Z,62.64
2018-05-11T12:01:45.121Z,57.50
2018-05-11T12:04:12.745Z,58.11
2018-05-11T12:06:40.456Z,58.22
2018-05-11T12:09:08.024Z,57.71
2018-05-11T12:11:35.648Z,56.47
2018-05-11T12:14:03.267Z,57.32
2018-05-11T12:16:30.849Z,57.92
2018-05-11T12:18:58.454Z,57.31
2018-05-11T12:21:26.085Z,57.72
2018-05-11T12:23:53.803Z,56.47
2018-05-11T12:26:21.487Z,55.19
2018-05-11T12:28:49.900Z,52.29
2018-05-11T12:31:17.508Z,50.13
2018-05-11T12:33:45.108Z,50.06
2018-05-11T12:36:12.729Z,48.58
2018-05-11T12:38:40.309Z,47.83
2018-05-11T12:41:07.947Z,47.45
2018-05-11T12:43:35.579Z,46.86
2018-05-11T12:46:03.246Z,47.76
2018-05-11T12:48:30.793Z,46.49
2018-05-11T12:50:58.412Z,48.31
2018-05-11T12:53:26.047Z,49.42
2018-05-11T12:55:53.709Z,51.37
2018-05-11T12:58:21.330Z,50.39
2018-05-11T13:00:48.908Z,49.02
2018-05-11T13:03:16.497Z,48.75
2018-05-11T13:05:44.123Z,49.15
2018-05-11T13:08:11.761Z,49.42
2018-05-11T13:10:39.365Z,50.70
2018-05-11T13:13:06.981Z,49.70
2018-05-11T13:15:34.569Z,49.55
2018-05-11T13:18:02.161Z,50.24
2018-05-11T13:20:29.808Z,48.70
2018-05-11T13:22:58.463Z,46.65
2018-05-11T13:25:26.058Z,45.48
2018-05-11T13:27:53.706Z,45.98
2018-05-11T13:30:21.319Z,46.98
2018-05-11T13:32:48.921Z,47.40
2018-05-11T13:35:16.556Z,47.50
2018-05-11T13:37:44.165Z,47.17
2018-05-11T13:40:11.746Z,47.09
2018-05-11T13:42:39.356Z,47.11
2018-05-11T13:45:07.913Z,48.19
2018-05-11T13:47:35.507Z,48.77
2018-05-11T13:50:03.132Z,49.15
2018-05-11T13:52:30.709Z,49.20
2018-05-11T13:54:58.294Z,49.02
2018-05-11T13:57:25.915Z,49.75
2018-05-11T13:59:53.537Z,51.50
2018-05-11T14:02:21.124Z,50.33
2018-05-11T14:04:48.788Z,49.77
2018-05-11T14:07:16.368Z,49.57
2018-05-11T14:09:43.945Z,49.85
2018-05-11T14:12:11.572Z,49.88
2018-05-11T14:14:39.189Z,50.89
2018-05-11T14:17:06.771Z,50.77
2018-05-11T14:19:34.408Z,49.36
2018-05-11T14:22:01.998Z,49.84
2018-05-11T14:24:29.594Z,49.14
2018-05-11T14:26:57.231Z,47.66
2018-05-11T14:29:24.831Z,48.60
2018-05-11T14:31:52.453Z,49.35
2018-05-11T14:34:22.180Z,50.38
2018-05-11T14:36:49.791Z,49.53
2018-05-11T14:39:22.013Z,49.68
2018-05-11T14:41:49.633Z,47.57
2018-05-11T14:44:19.001Z,47.54
2018-05-11T14:46:46.612Z,47.64
2018-05-11T14:49:14.332Z,48.76
2018-05-11T14:51:41.991Z,49.22
2018-05-11T14:54:09.710Z,48.88
2018-05-11T14:56:37.335Z,50.71
2018-05-11T14:59:04.945Z,50.42
2018-05-11T15:01:32.596Z,49.65
2018-05-11T15:04:00.218Z,49.91
2018-05-11T15:06:27.871Z,49.16
2018-05-11T15:08:55.447Z,49.83
2018-05-11T15:11:23.077Z,49.94
2018-05-11T15:13:50.672Z,51.01
2018-05-11T15:16:18.248Z,50.14
2018-05-11T15:18:45.890Z,50.90
2018-05-11T15:21:13.473Z,51.27
2018-05-11T15:23:41.062Z,51.33
2018-05-11T15:26:08.726Z,51.30
2018-05-11T15:28:36.321Z,51.27
2018-05-11T15:31:03.963Z,51.47
2018-05-11T15:33:31.594Z,50.09
2018-05-11T15:35:59.756Z,51.24
2018-05-11T15:38:27.331Z,52.94
2018-05-11T15:40:55.052Z,51.92
2018-05-11T15:43:22.642Z,52.79
2018-05-11T15:45:50.219Z,52.94
2018-05-11T15:48:17.832Z,53.53
2018-05-11T15:50:45.417Z,53.55
2018-05-11T15:53:13.000Z,52.61
2018-05-11T15:55:40.616Z,52.59
2018-05-11T15:58:08.201Z,52.94
2018-05-11T16:00:35.825Z,52.83
2018-05-11T16:03:03.477Z,52.53
2018-05-11T16:05:31.224Z,51.42
2018-05-11T16:07:58.849Z,50.30
2018-05-11T16:10:26.468Z,50.24
2018-05-11T16:12:54.129Z,49.96
2018-05-11T16:15:21.700Z,50.66
2018-05-11T16:17:49.319Z,51.78
2018-05-11T16:20:16.933Z,51.20
2018-05-11T16:22:44.518Z,50.80
2018-05-11T16:25:12.118Z,50.87
2018-05-11T16:27:39.683Z,51.93
2018-05-11T16:30:07.268Z,53.95
2018-05-11T16:32:34.968Z,53.85
2018-05-11T16:35:02.556Z,54.64
2018-05-11T16:37:30.120Z,55.40
2018-05-11T16:39:57.745Z,55.54
2018-05-11T16:42:25.320Z,56.52
2018-05-11T16:44:52.911Z,57.42
2018-05-11T16:47:20.560Z,57.19
2018-05-11T16:49:48.160Z,57.75
2018-05-11T16:52:15.756Z,58.64
2018-05-11T16:54:43.382Z,59.23
2018-05-11T16:57:10.968Z,60.62
2018-05-11T16:59:38.575Z,60.04
2018-05-11T17:02:06.306Z,60.58
2018-05-11T17:04:33.898Z,62.71
2018-05-11T17:07:01.488Z,63.83
2018-05-11T17:09:29.105Z,66.34
2018-05-11T17:11:56.692Z,63.48
2018-05-11T17:14:24.282Z,68.17
2018-05-11T17:16:51.898Z,65.75
2018-05-11T17:19:19.481Z,69.91
2018-05-11T17:21:47.072Z,71.98
2018-05-11T17:24:14.702Z,74.04
2018-05-11T17:26:42.293Z,75.10
2018-05-11T17:29:09.868Z,76.03
2018-05-11T17:31:37.485Z,76.46
2018-05-11T17:34:05.060Z,77.45
2018-05-11T17:36:32.702Z,78.88
2018-05-11T17:39:00.321Z,80.06
2018-05-11T17:41:27.919Z,80.32
2018-05-11T17:43:55.507Z,80.23
2018-05-11T17:46:23.134Z,79.58
2018-05-11T17:48:50.717Z,79.50
2018-05-11T17:51:18.299Z,80.44
2018-05-11T17:53:45.963Z,80.65
2018-05-11T17:56:13.590Z,78.82
2018-05-11T17:58:41.186Z,76.93
2018-05-11T18:01:08.819Z,73.77
2018-05-11T18:03:36.425Z,75.20
2018-05-11T18:06:04.021Z,76.51
2018-05-11T18:08:31.641Z,79.16
2018-05-11T18:10:59.241Z,80.92
2018-05-11T18:13:26.868Z,78.57
2018-05-11T18:15:54.490Z,78.27
2018-05-11T18:18:22.065Z,78.79
2018-05-11T18:20:49.646Z,78.00
2018-05-11T18:23:17.256Z,74.18
2018-05-11T18:25:44.843Z,73.61
2018-05-11T18:28:12.564Z,73.67
2018-05-11T18:30:40.214Z,75.31
2018-05-11T18:33:07.780Z,76.04
2018-05-11T18:35:35.365Z,76.85
2018-05-11T18:38:02.984Z,77.79
2018-05-11T18:40:30.568Z,79.48
2018-05-11T18:42:58.190Z,81.47
2018-05-11T18:45:25.867Z,83.49
2018-05-11T18:47:53.477Z,82.42
2018-05-11T18:50:21.071Z,82.46
2018-05-11T18:52:48.696Z,82.45
2018-05-11T18:55:16.318Z,82.44
2018-05-11T18:57:43.927Z,82.82
2018-05-11T19:00:11.613Z,83.29
2018-05-11T19:02:39.193Z,82.82
2018-05-11T19:05:06.740Z,83.17
2018-05-11T19:07:34.396Z,85.03
2018-05-11T19:10:01.981Z,85.77
2018-05-11T19:12:29.561Z,85.68
2018-05-11T19:14:57.185Z,86.12
2018-05-11T19:17:24.764Z,86.95
2018-05-11T19:19:52.359Z,87.80
2018-05-11T19:22:20.043Z,88.90
2018-05-11T19:24:48.825Z,89.69
2018-05-11T19:27:16.405Z,90.56
2018-05-11T19:29:44.005Z,91.83
2018-05-11T19:32:11.597Z,92.10
2018-05-11T19:34:39.246Z,91.78
2018-05-11T19:37:06.856Z,91.90
2018-05-11T19:39:34.449Z,92.70
2018-05-11T19:42:02.029Z,92.60
2018-05-11T19:44:29.656Z,93.05
2018-05-11T19:46:57.239Z,93.53
2018-05-11T19:49:25.787Z,94.13
2018-05-11T19:51:53.420Z,94.85
2018-05-11T19:54:20.997Z,93.36
2018-05-11T19:56:48.579Z,94.51
2018-05-11T19:59:16.218Z,95.42
2018-05-11T20:01:43.810Z,94.69
2018-05-11T20:04:11.422Z,94.69
2018-05-11T20:06:39.129Z,95.54
2018-05-11T20:09:06.731Z,96.11
2018-05-11T20:11:34.327Z,96.63
2018-05-11T20:14:01.917Z,96.77
2018-05-11T20:16:29.501Z,97.20
2018-05-11T20:18:57.069Z,97.56
2018-05-11T20:21:24.680Z,97.15
2018-05-11T20:23:52.289Z,97.72
2018-05-11T20:26:19.857Z,96.99
2018-05-11T20:28:48.015Z,96.73
2018-05-11T20:31:16.440Z,96.76
2018-05-11T20:33:44.917Z,96.88
2018-05-11T20:36:12.535Z,96.53
2018-05-11T20:38:45.548Z,96.33
2018-05-11T20:41:19.373Z,95.38
2018-05-11T20:43:52.885Z,95.43
2018-05-11T20:46:25.282Z,96.24
2018-05-11T20:48:54.147Z,98.23
2018-05-11T20:51:26.410Z,98.02
2018-05-11T20:53:54.001Z,98.14
2018-05-11T20:56:21.635Z,98.97
2018-05-11T20:58:49.222Z,98.66
2018-05-11T21:01:16.811Z,97.91
2018-05-11T21:03:44.414Z,98.20
2018-05-11T21:06:14.146Z,97.63
2018-05-11T21:08:41.876Z,97.53
2018-05-11T21:11:09.482Z,97.82
2018-05-11T21:13:37.058Z,97.95
2018-05-11T21:16:04.636Z,97.97
2018-05-11T21:18:32.253Z,97.78
2018-05-11T21:20:59.832Z,98.42
2018-05-11T21:23:27.422Z,98.46
2018-05-11T21:25:55.066Z,99.46
2018-05-11T21:28:22.683Z,99.45
2018-05-11T21:30:50.328Z,100.00
2018-05-11T21:33:17.955Z,100.00
2018-05-11T21:35:45.593Z,100.00
2018-05-11T21:38:13.205Z,100.00
2018-05-11T21:40:40.839Z,100.00
2018-05-11T21:43:08.469Z,100.00
2018-05-11T21:45:36.075Z,100.00
2018-05-11T21:48:08.700Z,100.00
2018-05-11T21:50:42.744Z,100.00
2018-05-11T21:53:12.224Z,100.00
2018-05-11T21:55:39.828Z,100.00
2018-05-11T21:58:07.393Z,100.00
2018-05-11T22:00:35.030Z,100.00
2018-05-11T22:03:02.613Z,100.00
2018-05-11T22:05:30.184Z,100.00
2018-05-11T22:07:57.797Z,100.00
2018-05-11T22:10:25.387Z,100.00
2018-05-11T22:12:52.978Z,100.00
2018-05-11T22:15:20.592Z,100.00
2018-05-11T22:17:48.176Z,100.00
2018-05-11T22:20:15.773Z,100.00
2018-05-11T22:22:43.425Z,100.00
2018-05-11T22:25:11.012Z,100.00
2018-05-11T22:27:38.606Z,100.00
2018-05-11T22:30:06.244Z,100.00
2018-05-11T22:32:33.815Z,100.00
2018-05-11T22:35:01.400Z,100.00
2018-05-11T22:37:29.027Z,100.00
2018-05-11T22:39:56.628Z,100.00
2018-05-11T22:42:24.208Z,100.00
2018-05-11T22:44:51.825Z,100.00
2018-05-11T22:47:19.399Z,100.00
2018-05-11T22:49:46.979Z,100.00
2018-05-11T22:52:14.619Z,100.00
2018-05-11T22:54:42.201Z,100.00
2018-05-11T22:57:09.793Z,100.00
2018-05-11T22:59:37.397Z,100.00
2018-05-11T23:02:04.969Z,100.00
2018-05-11T23:04:32.549Z,100.00
2018-05-11T23:07:00.155Z,100.00
2018-05-11T23:09:27.743Z,100.00
2018-05-11T23:11:55.323Z,100.00
2018-05-11T23:16:55.703Z,100.00
2018-05-11T23:19:23.327Z,100.00
2018-05-11T23:21:50.909Z,100.00
2018-05-11T23:24:18.489Z,100.00
2018-05-11T23:26:46.106Z,100.00
2018-05-11T23:29:13.688Z,100.00
2018-05-11T23:31:41.264Z,100.00
2018-05-11T23:34:08.884Z,100.00
2018-05-11T23:36:36.464Z,100.00
2018-05-11T23:39:04.123Z,100.00
2018-05-11T23:41:31.734Z,100.00
2018-05-11T23:43:59.328Z,100.00
2018-05-11T23:46:26.914Z,100.00
2018-05-11T23:48:54.529Z,100.00
2018-05-11T23:51:22.110Z,100.00
2018-05-11T23:53:49.683Z,100.00
2018-05-11T23:56:17.305Z,100.00
2018-05-11T23:58:44.892Z,100.00
